Time;durP1;ratioP1;P1;durP2;ratioP2;P2;SDS_P1;SDS_P2;PMS_P1;PMS_P2;Temp;Humidity;BMP_temperature;BMP_pressure;BME280_temperature;BME280_humidity;BME280_pressure;Samples;Min_cycle;Max_cycle;Signal;HPM_P1;HPM_P2
2021/01/09 08:50:04;;;;;;;11.45;9.25;;;;;;;;;;13002041;22;20007;-85
2021/01/09 08:55:05;;;;;;;9.27;7.95;;;;;;;;;;12981404;22;20003;-83
2021/01/09 09:00:07;;;;;;;13.30;10.65;;;;;;;;;;12978607;22;20341;-85
2021/01/09 09:05:13;;;;;;;11.25;9.38;;;;;;;;;;12979110;22;20004;-83
2021/01/09 09:10:14;;;;;;;11.13;9.50;;;;;;;;;;12975322;22;20008;-83
2021/01/09 09:15:36;;;;;;;10.73;9.43;;;;;;;;;;13002316;22;20447;-83
2021/01/09 09:20:38;;;;;;;11.93;9.68;;;;;;;;;;12973404;22;20004;-83
2021/01/09 09:25:39;;;;;;;11.60;10.25;;;;;;;;;;12973185;22;20031;-83
2021/01/09 09:30:40;;;;;;;12.80;10.52;;;;;;;;;;12973225;22;20011;-83
2021/01/09 09:35:42;;;;;;;15.88;13.18;;;;;;;;;;12975938;22;20012;-83
2021/01/09 09:40:45;;;;;;;11.80;9.43;;;;;;;;;;12978046;22;19999;-85
2021/01/09 09:45:57;;;;;;;12.65;9.93;;;;;;;;;;12978554;22;20007;-83
2021/01/09 09:51:08;;;;;;;13.05;10.20;;;;;;;;;;12975077;22;20352;-83
2021/01/09 09:56:13;;;;;;;12.65;10.63;;;;;;;;;;12978319;22;20020;-83
2021/01/09 10:01:24;;;;;;;12.93;9.50;;;;;;;;;;13006355;22;19999;-81
2021/01/09 10:06:39;;;;;;;13.32;9.98;;;;;;;;;;13006277;22;20067;-85
2021/01/09 10:11:41;;;;;;;15.25;11.55;;;;;;;;;;12977442;22;20010;-84
2021/01/09 10:16:43;;;;;;;15.05;11.88;;;;;;;;;;12980365;22;20019;-84
2021/01/09 10:21:44;;;;;;;12.88;10.32;;;;;;;;;;12989554;22;20083;-85
2021/01/09 10:26:51;;;;;;;12.00;9.95;;;;;;;;;;12976050;22;19999;-84
2021/01/09 10:31:52;;;;;;;12.40;10.75;;;;;;;;;;12972405;22;20005;-84
2021/01/09 10:36:53;;;;;;;13.82;12.00;;;;;;;;;;12948973;22;20503;-84
2021/01/09 10:41:54;;;;;;;14.15;12.75;;;;;;;;;;12973155;22;20025;-82
2021/01/09 10:46:55;;;;;;;12.18;9.80;;;;;;;;;;12971005;22;20011;-81
2021/01/09 10:51:56;;;;;;;11.40;10.15;;;;;;;;;;12971894;22;20056;-83
2021/01/09 10:56:57;;;;;;;10.55;9.45;;;;;;;;;;12972005;22;20006;-84
2021/01/09 11:02:02;;;;;;;10.82;9.27;;;;;;;;;;12972543;22;20014;-84
2021/01/09 11:07:03;;;;;;;11.68;9.32;;;;;;;;;;12973174;22;20000;-83
2021/01/09 11:12:05;;;;;;;10.82;9.43;;;;;;;;;;12975236;22;20336;-84
2021/01/09 11:17:06;;;;;;;13.13;11.75;;;;;;;;;;12974065;22;20019;-83
2021/01/09 11:22:07;;;;;;;11.45;8.60;;;;;;;;;;12976429;22;20010;-84
2021/01/09 11:27:08;;;;;;;10.68;9.40;;;;;;;;;;13003161;22;20011;-83
2021/01/09 11:32:09;;;;;;;10.05;9.05;;;;;;;;;;12975032;22;20082;-82
2021/01/09 11:37:10;;;;;;;12.73;11.05;;;;;;;;;;12981068;22;20003;-82
2021/01/09 11:42:11;;;;;;;13.10;11.55;;;;;;;;;;12981629;22;20030;-83
2021/01/09 11:47:12;;;;;;;10.05;8.93;;;;;;;;;;12978755;22;20111;-86
2021/01/09 11:52:13;;;;;;;14.13;11.80;;;;;;;;;;12977785;22;20004;-84
2021/01/09 11:57:14;;;;;;;12.63;11.25;;;;;;;;;;12986985;22;20004;-84
2021/01/09 12:02:18;;;;;;;13.38;9.77;;;;;;;;;;12984085;22;20432;-82
2021/01/09 12:07:19;;;;;;;18.40;15.70;;;;;;;;;;13013919;22;20007;-82
2021/01/09 12:12:20;;;;;;;13.75;12.05;;;;;;;;;;12979707;22;20046;-83
2021/01/09 12:17:21;;;;;;;14.40;12.55;;;;;;;;;;12978207;22;20024;-83
2021/01/09 12:22:22;;;;;;;14.00;12.13;;;;;;;;;;12975508;22;20034;-85
2021/01/09 12:27:27;;;;;;;10.73;9.07;;;;;;;;;;13011484;22;20006;-85
2021/01/09 12:32:28;;;;;;;18.75;16.42;;;;;;;;;;12980039;22;19999;-85
2021/01/09 12:37:29;;;;;;;15.18;13.45;;;;;;;;;;12979970;22;20313;-83
2021/01/09 12:42:30;;;;;;;13.27;11.65;;;;;;;;;;12977905;22;20014;-85
2021/01/09 12:47:31;;;;;;;10.57;9.25;;;;;;;;;;12976593;22;20015;-85
2021/01/09 12:52:32;;;;;;;18.45;15.20;;;;;;;;;;12975789;22;20030;-84
2021/01/09 12:57:33;;;;;;;26.92;21.33;;;;;;;;;;12976432;22;20058;-84
2021/01/09 13:02:35;;;;;;;23.45;18.58;;;;;;;;;;12977074;22;20023;-86
2021/01/09 13:07:36;;;;;;;26.17;21.23;;;;;;;;;;12977394;22;20014;-85
2021/01/09 13:12:37;;;;;;;20.08;16.85;;;;;;;;;;12978564;22;20008;-85
2021/01/09 13:17:38;;;;;;;19.58;16.15;;;;;;;;;;12975944;22;20003;-85
2021/01/09 13:22:39;;;;;;;28.85;22.60;;;;;;;;;;12977023;22;20109;-85
2021/01/09 13:27:40;;;;;;;29.13;22.65;;;;;;;;;;12977942;22;20007;-85
2021/01/09 13:32:41;;;;;;;35.40;27.23;;;;;;;;;;12977176;22;20440;-85
2021/01/09 13:37:42;;;;;;;22.17;17.02;;;;;;;;;;12979873;22;20004;-85
2021/01/09 13:42:43;;;;;;;29.92;21.83;;;;;;;;;;12977976;22;20006;-85
2021/01/09 13:47:44;;;;;;;26.52;20.75;;;;;;;;;;12977009;22;20094;-86
2021/01/09 13:52:51;;;;;;;24.15;19.73;;;;;;;;;;12976999;22;20022;-85
2021/01/09 13:57:52;;;;;;;32.10;24.52;;;;;;;;;;12976696;22;20035;-85
2021/01/09 14:02:53;;;;;;;22.83;18.25;;;;;;;;;;12976510;22;20000;-86
2021/01/09 14:07:54;;;;;;;25.10;20.02;;;;;;;;;;12977811;22;20008;-85
2021/01/09 14:12:55;;;;;;;26.55;21.15;;;;;;;;;;13003415;22;20011;-85
2021/01/09 14:17:59;;;;;;;33.03;27.10;;;;;;;;;;12988349;22;20000;-86
2021/01/09 14:23:00;;;;;;;28.23;20.13;;;;;;;;;;13012741;22;19999;-83
2021/01/09 14:28:04;;;;;;;22.95;18.38;;;;;;;;;;12996961;22;20459;-84
2021/01/09 14:33:05;;;;;;;21.58;18.75;;;;;;;;;;12975218;22;20278;-86
2021/01/09 14:38:06;;;;;;;22.80;18.05;;;;;;;;;;12975297;22;20014;-85
2021/01/09 14:43:07;;;;;;;20.90;17.20;;;;;;;;;;12974167;22;20011;-87
2021/01/09 14:48:09;;;;;;;24.27;19.98;;;;;;;;;;12972474;22;20008;-86
2021/01/09 14:53:10;;;;;;;28.27;22.73;;;;;;;;;;12972285;22;20282;-85
2021/01/09 14:58:11;;;;;;;24.52;19.52;;;;;;;;;;12972323;22;20087;-86
2021/01/09 15:08:39;;;;;;;18.70;15.88;;;;;;;;;;13002171;22;20019;-86
2021/01/09 15:13:41;;;;;;;14.70;12.73;;;;;;;;;;12971493;22;20038;-85
2021/01/09 15:19:22;;;;;;;11.10;9.82;;;;;;;;;;12971324;22;20086;-86
2021/01/09 15:24:22;;;;;;;11.75;10.55;;;;;;;;;;13013707;22;20015;-85
2021/01/09 15:29:26;;;;;;;10.40;9.30;;;;;;;;;;13008860;22;20011;-85
2021/01/09 15:34:36;;;;;;;10.02;8.95;;;;;;;;;;13002020;22;20003;-85
2021/01/09 15:39:37;;;;;;;10.07;9.02;;;;;;;;;;12972330;22;20012;-85
2021/01/09 15:44:58;;;;;;;11.20;9.85;;;;;;;;;;12980523;22;20004;-86
2021/01/09 15:49:59;;;;;;;9.68;8.60;;;;;;;;;;12974944;22;20462;-86
2021/01/09 15:55:09;;;;;;;9.52;8.38;;;;;;;;;;12976291;22;20028;-85
2021/01/09 16:00:16;;;;;;;9.88;8.35;;;;;;;;;;12977567;22;20004;-86
2021/01/09 16:05:17;;;;;;;8.70;7.80;;;;;;;;;;12969729;22;19996;-86
2021/01/09 16:10:24;;;;;;;8.88;7.97;;;;;;;;;;12968360;22;20012;-86
2021/01/09 16:20:58;;;;;;;10.00;9.00;;;;;;;;;;12998686;22;20016;-86
2021/01/09 16:25:59;;;;;;;12.32;11.02;;;;;;;;;;12973074;22;20003;-85
2021/01/09 16:31:01;;;;;;;15.90;13.98;;;;;;;;;;12976011;22;20004;-85
2021/01/09 16:36:08;;;;;;;14.68;13.18;;;;;;;;;;12974677;22;20008;-85
2021/01/09 16:41:09;;;;;;;18.15;16.30;;;;;;;;;;12973544;22;20443;-84
2021/01/09 16:46:14;;;;;;;20.67;18.58;;;;;;;;;;12973526;22;20027;-85
2021/01/09 16:51:21;;;;;;;18.27;16.33;;;;;;;;;;12975851;22;20462;-86
2021/01/09 16:56:23;;;;;;;21.73;19.42;;;;;;;;;;12975096;22;20082;-86
2021/01/09 17:01:24;;;;;;;18.63;16.60;;;;;;;;;;12975478;22;19999;-85
2021/01/09 17:06:27;;;;;;;20.45;18.35;;;;;;;;;;12975409;22;20010;-86
2021/01/09 17:11:43;;;;;;;29.80;23.02;;;;;;;;;;12913507;23;20074;-86
2021/01/09 17:16:47;;;;;;;20.25;17.70;;;;;;;;;;12913250;23;20012;-86
2021/01/09 17:21:48;;;;;;;22.67;19.10;;;;;;;;;;12912941;23;20441;-85
2021/01/09 17:26:52;;;;;;;22.58;20.23;;;;;;;;;;12910339;23;20008;-85
2021/01/09 17:31:53;;;;;;;20.48;18.35;;;;;;;;;;12908124;23;20040;-86
2021/01/09 17:37:00;;;;;;;17.52;15.63;;;;;;;;;;12909446;23;20095;-86
2021/01/09 17:42:01;;;;;;;20.58;13.85;;;;;;;;;;12909623;23;20003;-87
2021/01/09 17:47:02;;;;;;;21.02;18.83;;;;;;;;;;12909100;23;19996;-86
2021/01/09 17:52:06;;;;;;;17.35;15.63;;;;;;;;;;12911088;23;20004;-87
2021/01/09 17:57:07;;;;;;;22.67;20.38;;;;;;;;;;12912143;23;20011;-87
2021/01/09 18:02:08;;;;;;;20.85;18.65;;;;;;;;;;12911097;23;20004;-87
2021/01/09 18:07:09;;;;;;;16.95;15.25;;;;;;;;;;12908661;23;20008;-86
2021/01/09 18:12:14;;;;;;;18.02;16.13;;;;;;;;;;12909044;23;20004;-86
2021/01/09 18:17:16;;;;;;;24.20;21.67;;;;;;;;;;12910422;23;20008;-87
2021/01/09 18:22:17;;;;;;;22.92;20.45;;;;;;;;;;12910199;23;20000;-86
2021/01/09 18:27:23;;;;;;;28.70;25.60;;;;;;;;;;12927357;23;20039;-86
2021/01/09 18:32:28;;;;;;;31.55;25.95;;;;;;;;;;12919425;23;20008;-88
2021/01/09 18:37:29;;;;;;;31.95;25.15;;;;;;;;;;12920802;23;20011;-87
2021/01/09 18:42:31;;;;;;;28.02;24.98;;;;;;;;;;12918521;23;20113;-87
2021/01/09 18:47:38;;;;;;;25.35;22.55;;;;;;;;;;12930347;23;20336;-87
2021/01/09 18:52:41;;;;;;;22.42;20.02;;;;;;;;;;12927238;23;20015;-87
2021/01/09 18:57:43;;;;;;;26.17;23.35;;;;;;;;;;12939244;22;20012;-87
2021/01/09 19:02:44;;;;;;;28.83;25.63;;;;;;;;;;12931976;23;20019;-86
2021/01/09 19:07:47;;;;;;;22.42;20.02;;;;;;;;;;12914606;23;20034;-87
2021/01/09 19:12:48;;;;;;;27.92;24.92;;;;;;;;;;12919732;23;20062;-86
2021/01/09 19:17:50;;;;;;;27.15;24.00;;;;;;;;;;12916743;23;20008;-87
2021/01/09 19:22:51;;;;;;;23.80;21.13;;;;;;;;;;12916449;23;20471;-86
2021/01/09 19:27:52;;;;;;;21.50;19.20;;;;;;;;;;12911181;23;20008;-86
2021/01/09 19:32:54;;;;;;;23.27;20.77;;;;;;;;;;12910425;23;20123;-86
2021/01/09 19:37:59;;;;;;;22.35;19.85;;;;;;;;;;12910906;23;20340;-87
2021/01/09 19:43:00;;;;;;;27.35;23.60;;;;;;;;;;12911726;23;20011;-87
2021/01/09 19:48:01;;;;;;;23.85;21.33;;;;;;;;;;12911801;23;20004;-86
2021/01/09 19:53:04;;;;;;;21.67;19.35;;;;;;;;;;12912604;23;20004;-87
2021/01/09 19:58:05;;;;;;;21.15;18.95;;;;;;;;;;12908278;23;20008;-87
2021/01/09 20:03:06;;;;;;;24.40;21.90;;;;;;;;;;12912477;23;20000;-87
2021/01/09 20:08:07;;;;;;;24.58;21.98;;;;;;;;;;12937440;23;20429;-86
2021/01/09 20:13:10;;;;;;;22.25;20.00;;;;;;;;;;12914012;23;20527;-86
2021/01/09 20:18:11;;;;;;;22.48;20.20;;;;;;;;;;12910945;23;20008;-86
2021/01/09 20:23:12;;;;;;;22.85;20.55;;;;;;;;;;12937803;23;19993;-87
2021/01/09 20:28:13;;;;;;;23.30;20.88;;;;;;;;;;12914050;23;20364;-86
2021/01/09 20:33:14;;;;;;;25.20;22.70;;;;;;;;;;12943244;23;20004;-87
2021/01/09 20:38:15;;;;;;;21.63;19.42;;;;;;;;;;12941110;23;20008;-86
2021/01/09 20:43:16;;;;;;;21.77;19.58;;;;;;;;;;12952027;23;20026;-88
2021/01/09 20:48:26;;;;;;;20.23;18.13;;;;;;;;;;12950533;23;20004;-86
2021/01/09 20:53:27;;;;;;;20.63;18.55;;;;;;;;;;12920586;23;20015;-88
2021/01/09 20:58:29;;;;;;;20.10;18.10;;;;;;;;;;12915380;23;20056;-88
2021/01/09 21:03:30;;;;;;;18.10;16.30;;;;;;;;;;12914381;23;20027;-85
2021/01/09 21:08:31;;;;;;;20.63;18.52;;;;;;;;;;12908972;23;20467;-88
2021/01/09 21:13:32;;;;;;;20.10;18.10;;;;;;;;;;12910180;23;20019;-85
2021/01/09 21:18:33;;;;;;;22.73;20.48;;;;;;;;;;12910391;23;20004;-86
2021/01/09 21:23:35;;;;;;;21.85;19.63;;;;;;;;;;12911625;23;20004;-89
2021/01/09 21:28:36;;;;;;;23.33;20.92;;;;;;;;;;12910841;23;20023;-85
2021/01/09 21:33:37;;;;;;;22.20;19.98;;;;;;;;;;12909063;23;20310;-86
2021/01/09 21:38:39;;;;;;;22.77;20.50;;;;;;;;;;12909042;23;20087;-86
2021/01/09 21:43:40;;;;;;;25.35;22.77;;;;;;;;;;12908976;23;20012;-85
2021/01/09 21:48:41;;;;;;;20.75;18.73;;;;;;;;;;12934981;23;20079;-86
2021/01/09 21:53:44;;;;;;;22.45;20.08;;;;;;;;;;12912121;23;20019;-86
2021/01/09 21:58:45;;;;;;;19.65;17.55;;;;;;;;;;12974457;22;20008;-86
2021/01/09 22:03:46;;;;;;;17.17;15.48;;;;;;;;;;12955991;23;20023;-86
2021/01/09 22:08:47;;;;;;;20.60;18.40;;;;;;;;;;12907690;23;20086;-87
2021/01/09 22:13:54;;;;;;;21.38;19.20;;;;;;;;;;12936657;23;20111;-86
2021/01/09 22:18:55;;;;;;;23.10;20.70;;;;;;;;;;12909779;23;20007;-86
2021/01/09 22:23:56;;;;;;;20.63;18.52;;;;;;;;;;12911632;23;20058;-86
2021/01/09 22:28:57;;;;;;;21.98;19.75;;;;;;;;;;12908433;23;20004;-86
2021/01/09 22:33:58;;;;;;;18.38;16.42;;;;;;;;;;12909784;23;20173;-86
2021/01/09 22:38:59;;;;;;;24.52;21.83;;;;;;;;;;12908213;23;20491;-85
2021/01/09 22:44:00;;;;;;;18.92;17.02;;;;;;;;;;12908012;23;20325;-86
2021/01/09 22:49:01;;;;;;;16.92;15.23;;;;;;;;;;12911086;23;20035;-85
2021/01/09 22:54:02;;;;;;;21.02;18.92;;;;;;;;;;12914162;23;20038;-86
2021/01/09 22:59:03;;;;;;;20.70;18.60;;;;;;;;;;12905823;23;20000;-86
2021/01/09 23:04:04;;;;;;;20.67;18.50;;;;;;;;;;12913902;23;20008;-86
2021/01/09 23:09:09;;;;;;;20.67;18.58;;;;;;;;;;12921385;23;20008;-87
2021/01/09 23:14:10;;;;;;;19.10;17.20;;;;;;;;;;12920724;23;20020;-86
2021/01/09 23:19:11;;;;;;;18.38;16.48;;;;;;;;;;12938632;23;20004;-86
2021/01/09 23:24:12;;;;;;;18.88;16.98;;;;;;;;;;12907814;23;20007;-86
2021/01/09 23:29:13;;;;;;;18.83;16.92;;;;;;;;;;12935107;23;20004;-86
2021/01/09 23:34:14;;;;;;;19.17;17.27;;;;;;;;;;12913736;23;20008;-86
